createdAt,value
2023-03-06T00:02:14.502Z,53.52
2023-03-06T00:04:42.826Z,53.71
2023-03-06T00:07:11.722Z,53.20
2023-03-06T00:09:40.244Z,52.77
2023-03-06T00:12:09.041Z,52.84
2023-03-06T00:14:37.854Z,52.90
2023-03-06T00:17:06.315Z,52.97
2023-03-06T00:19:34.903Z,53.23
2023-03-06T00:22:03.470Z,53.09
2023-03-06T00:24:35.464Z,53.33
2023-03-06T00:27:03.910Z,53.15
2023-03-06T00:29:32.493Z,53.06
2023-03-06T00:32:01.537Z,53.12
2023-03-06T00:34:30.183Z,53.21
2023-03-06T00:36:58.651Z,52.92
2023-03-06T00:39:27.340Z,53.02
2023-03-06T00:41:56.027Z,53.00
2023-03-06T00:44:26.550Z,53.15
2023-03-06T00:46:55.036Z,52.97
2023-03-06T00:49:23.516Z,52.99
2023-03-06T00:51:52.094Z,53.14
2023-03-06T00:54:20.684Z,53.22
2023-03-06T00:56:48.954Z,53.32
2023-03-06T00:59:17.656Z,53.55
2023-03-06T01:01:46.396Z,53.66
2023-03-06T01:04:15.343Z,53.67
2023-03-06T01:06:43.796Z,53.76
2023-03-06T01:09:12.397Z,53.76
2023-03-06T01:11:40.965Z,53.87
2023-03-06T01:14:09.850Z,54.12
2023-03-06T01:16:38.348Z,54.00
2023-03-06T01:19:07.121Z,54.28
2023-03-06T01:21:35.704Z,54.30
2023-03-06T01:24:04.386Z,54.10
2023-03-06T01:26:33.689Z,54.36
2023-03-06T01:32:39.970Z,55.10
2023-03-06T01:35:09.288Z,56.79
2023-03-06T01:37:38.187Z,56.94
2023-03-06T01:40:08.886Z,55.87
2023-03-06T01:42:37.442Z,56.40
2023-03-06T01:45:13.054Z,57.39
2023-03-06T01:47:41.622Z,56.20
2023-03-06T01:50:12.014Z,56.11
2023-03-06T01:52:48.442Z,56.89
2023-03-06T01:55:32.252Z,56.40
2023-03-06T01:58:04.016Z,56.32
2023-03-06T02:00:32.810Z,56.45
2023-03-06T02:03:18.688Z,56.68
2023-03-06T02:05:47.577Z,56.55
2023-03-06T02:08:19.062Z,56.88
2023-03-06T02:11:11.704Z,56.89
2023-03-06T02:13:41.384Z,57.13
2023-03-06T02:16:11.097Z,56.17
2023-03-06T02:18:42.337Z,55.74
2023-03-06T02:21:20.551Z,55.37
2023-03-06T02:24:08.726Z,55.21
2023-03-06T02:26:39.534Z,54.94
2023-03-06T02:29:09.546Z,54.91
2023-03-06T02:31:38.155Z,55.28
2023-03-06T02:34:15.508Z,55.30
2023-03-06T02:37:01.030Z,55.88
2023-03-06T02:39:33.857Z,56.13
2023-03-06T02:42:02.570Z,55.74
2023-03-06T02:44:34.525Z,55.86
2023-03-06T02:47:02.915Z,55.66
2023-03-06T02:49:31.391Z,55.81
2023-03-06T02:51:59.789Z,55.69
2023-03-06T02:54:28.296Z,55.78
2023-03-06T02:56:56.838Z,55.91
2023-03-06T02:59:25.537Z,55.86
2023-03-06T03:01:55.137Z,56.61
2023-03-06T03:08:01.822Z,56.57
2023-03-06T03:10:30.724Z,56.74
2023-03-06T03:12:59.298Z,57.02
2023-03-06T03:15:28.075Z,57.55
2023-03-06T03:17:56.352Z,57.43
2023-03-06T03:20:24.857Z,58.76
2023-03-06T03:22:55.676Z,58.63
2023-03-06T03:25:26.318Z,58.28
2023-03-06T03:27:57.878Z,57.99
2023-03-06T03:30:26.861Z,58.08
2023-03-06T03:32:55.228Z,57.90
2023-03-06T03:35:24.135Z,58.13
2023-03-06T03:37:54.833Z,57.86
2023-03-06T03:40:23.367Z,57.42
2023-03-06T03:42:51.926Z,57.48
2023-03-06T03:45:21.016Z,58.30
2023-03-06T03:47:50.236Z,58.79
2023-03-06T03:50:19.485Z,58.40
2023-03-06T03:52:48.094Z,58.82
2023-03-06T03:55:17.190Z,58.31
2023-03-06T03:57:45.466Z,59.23
2023-03-06T04:00:16.797Z,59.84
2023-03-06T04:02:53.002Z,60.80
2023-03-06T04:05:29.694Z,60.96
2023-03-06T04:07:59.367Z,61.28
2023-03-06T04:10:28.145Z,60.84
2023-03-06T04:12:57.853Z,61.20
2023-03-06T04:15:26.882Z,61.75
2023-03-06T04:17:55.325Z,61.46
2023-03-06T04:20:26.366Z,61.33
2023-03-06T04:22:54.815Z,61.87
2023-03-06T04:25:23.963Z,61.87
2023-03-06T04:27:52.946Z,63.06
2023-03-06T04:30:22.175Z,62.61
2023-03-06T04:32:51.128Z,62.38
2023-03-06T04:35:20.091Z,62.43
2023-03-06T04:37:56.513Z,62.07
2023-03-06T04:40:29.456Z,61.78
2023-03-06T04:42:59.660Z,61.58
2023-03-06T04:45:29.962Z,61.73
2023-03-06T04:47:59.367Z,61.22
2023-03-06T04:50:32.643Z,61.62
2023-03-06T04:53:02.121Z,62.11
2023-03-06T04:55:31.841Z,62.12
2023-03-06T04:58:00.945Z,62.08
2023-03-06T05:00:31.795Z,61.94
2023-03-06T05:03:02.796Z,62.04
2023-03-06T05:05:31.798Z,61.87
2023-03-06T05:08:00.276Z,62.12
2023-03-06T05:10:29.488Z,62.55
2023-03-06T05:12:58.566Z,62.63
2023-03-06T05:15:27.350Z,63.13
2023-03-06T05:17:57.088Z,63.69
2023-03-06T05:20:26.666Z,63.56
2023-03-06T05:22:56.180Z,63.59
2023-03-06T05:25:31.221Z,63.65
2023-03-06T05:28:00.108Z,63.24
2023-03-06T05:30:28.990Z,63.16
2023-03-06T05:32:58.105Z,63.80
2023-03-06T05:35:31.741Z,63.61
2023-03-06T05:38:04.109Z,63.91
2023-03-06T05:40:37.887Z,63.78
2023-03-06T05:43:08.815Z,63.83
2023-03-06T05:45:44.859Z,63.59
2023-03-06T05:48:14.496Z,63.79
2023-03-06T05:50:43.967Z,63.64
2023-03-06T05:53:12.785Z,64.25
2023-03-06T05:55:41.871Z,63.71
2023-03-06T05:58:10.757Z,63.48
2023-03-06T06:00:39.298Z,64.13
2023-03-06T06:03:08.415Z,64.24
2023-03-06T06:05:40.756Z,63.92
2023-03-06T06:08:12.148Z,63.64
2023-03-06T06:10:42.168Z,63.98
2023-03-06T06:13:12.028Z,63.86
2023-03-06T06:15:45.356Z,63.45
2023-03-06T06:18:18.988Z,63.37
2023-03-06T06:24:27.589Z,63.29
2023-03-06T06:26:58.583Z,63.01
2023-03-06T06:29:28.836Z,62.64
2023-03-06T06:31:58.083Z,62.51
2023-03-06T06:34:28.515Z,62.72
2023-03-06T06:36:57.413Z,62.88
2023-03-06T06:39:26.388Z,63.07
2023-03-06T06:42:10.985Z,62.72
2023-03-06T06:44:46.413Z,62.63
2023-03-06T06:47:25.341Z,62.58
2023-03-06T06:49:57.776Z,62.45
2023-03-06T06:52:31.725Z,62.24
2023-03-06T06:55:01.740Z,62.04
2023-03-06T06:57:30.632Z,62.06
2023-03-06T07:00:00.316Z,62.01
2023-03-06T07:02:33.452Z,61.30
2023-03-06T07:05:18.723Z,61.11
2023-03-06T07:07:51.490Z,60.54
2023-03-06T07:10:21.269Z,60.12
2023-03-06T07:12:50.467Z,59.78
2023-03-06T07:15:26.297Z,59.89
2023-03-06T07:17:56.247Z,59.55
2023-03-06T07:20:27.611Z,58.53
2023-03-06T07:22:56.283Z,58.20
2023-03-06T07:25:25.520Z,58.00
2023-03-06T07:27:57.060Z,57.91
2023-03-06T07:30:26.334Z,57.01
2023-03-06T07:32:57.597Z,56.93
2023-03-06T07:35:27.986Z,57.19
2023-03-06T07:37:57.617Z,56.90
2023-03-06T07:40:27.413Z,56.35
2023-03-06T07:43:12.872Z,55.87
2023-03-06T07:46:06.254Z,56.10
2023-03-06T07:48:39.363Z,55.02
2023-03-06T07:51:16.870Z,54.30
2023-03-06T07:53:47.698Z,53.57
2023-03-06T07:56:18.014Z,52.80
2023-03-06T07:58:49.533Z,53.94
2023-03-06T08:01:20.924Z,51.67
2023-03-06T08:03:50.627Z,50.13
2023-03-06T08:06:24.403Z,50.20
2023-03-06T08:08:56.436Z,50.52
2023-03-06T08:11:33.792Z,49.82
2023-03-06T08:14:05.330Z,51.84
2023-03-06T08:16:34.515Z,49.95
2023-03-06T08:19:04.650Z,48.84
2023-03-06T08:21:35.915Z,48.36
2023-03-06T08:24:06.744Z,48.15
2023-03-06T08:26:37.077Z,48.96
2023-03-06T08:29:08.800Z,48.59
2023-03-06T08:31:42.438Z,48.85
2023-03-06T08:34:21.561Z,46.98
2023-03-06T08:36:51.862Z,46.18
2023-03-06T08:39:23.937Z,47.09
2023-03-06T08:41:52.425Z,46.76
2023-03-06T08:44:21.091Z,45.95
2023-03-06T08:46:50.196Z,43.52
2023-03-06T08:49:18.981Z,44.97
2023-03-06T08:51:48.954Z,43.70
2023-03-06T08:54:18.801Z,43.49
2023-03-06T08:56:47.493Z,45.39
2023-03-06T08:59:18.122Z,44.45
2023-03-06T09:01:48.083Z,41.45
2023-03-06T09:04:17.242Z,44.92
2023-03-06T09:06:47.144Z,44.90
2023-03-06T09:09:16.255Z,43.52
2023-03-06T09:11:45.435Z,42.90
2023-03-06T09:14:15.103Z,43.25
2023-03-06T09:16:44.143Z,43.15
2023-03-06T09:19:13.847Z,42.09
2023-03-06T09:21:42.527Z,41.98
2023-03-06T09:24:11.139Z,41.14
2023-03-06T09:26:47.056Z,41.90
2023-03-06T09:29:18.236Z,42.17
2023-03-06T09:31:47.635Z,41.26
2023-03-06T09:34:17.047Z,42.02
2023-03-06T09:36:56.468Z,42.50
2023-03-06T09:39:26.791Z,41.59
2023-03-06T09:42:01.456Z,41.51
2023-03-06T09:44:35.301Z,39.71
2023-03-06T09:47:56.353Z,40.81
2023-03-06T09:50:51.832Z,39.22
2023-03-06T09:53:49.869Z,40.45
2023-03-06T09:56:25.945Z,39.91
2023-03-06T09:59:16.342Z,40.00
2023-03-06T10:02:17.340Z,38.96
2023-03-06T10:04:55.894Z,38.08
2023-03-06T10:07:59.100Z,38.26
2023-03-06T10:10:52.150Z,37.75
2023-03-06T10:13:33.681Z,37.44
2023-03-06T10:16:16.819Z,36.97
2023-03-06T10:18:47.329Z,36.82
2023-03-06T10:21:59.561Z,36.80
2023-03-06T10:24:51.258Z,37.62
2023-03-06T10:27:46.706Z,37.30
2023-03-06T10:30:36.164Z,36.46
2023-03-06T10:33:17.423Z,36.47
2023-03-06T10:35:52.769Z,36.20
2023-03-06T10:38:38.435Z,35.74
2023-03-06T10:41:20.036Z,35.30
2023-03-06T10:44:01.735Z,35.44
2023-03-06T10:46:34.685Z,35.47
2023-03-06T10:49:25.582Z,35.23
2023-03-06T10:52:09.980Z,35.24
2023-03-06T10:54:44.782Z,35.04
2023-03-06T10:57:31.094Z,35.54
2023-03-06T11:00:08.873Z,35.21
2023-03-06T11:02:42.537Z,35.03
2023-03-06T11:05:20.314Z,34.66
2023-03-06T11:07:56.916Z,34.65
2023-03-06T11:10:30.028Z,35.16
2023-03-06T11:13:05.223Z,35.34
2023-03-06T11:15:36.426Z,35.57
2023-03-06T11:18:08.441Z,35.41
2023-03-06T11:20:52.357Z,35.48
2023-03-06T11:23:51.862Z,35.20
2023-03-06T11:26:30.478Z,36.11
2023-03-06T11:29:02.078Z,36.22
2023-03-06T11:31:44.779Z,35.95
2023-03-06T11:34:39.135Z,36.00
2023-03-06T11:37:20.623Z,35.98
2023-03-06T11:40:00.478Z,36.39
2023-03-06T11:42:53.730Z,36.40
2023-03-06T11:45:24.580Z,36.64
2023-03-06T11:48:14.908Z,35.85
2023-03-06T11:50:46.339Z,35.90
2023-03-06T11:53:28.461Z,35.99
2023-03-06T11:56:20.556Z,35.77
2023-03-06T11:58:53.041Z,36.07
2023-03-06T12:01:55.300Z,36.19
2023-03-06T12:04:43.234Z,36.19
2023-03-06T12:07:36.845Z,36.48
2023-03-06T12:10:49.062Z,36.65
2023-03-06T12:16:21.801Z,36.19
2023-03-06T12:19:03.810Z,35.75
2023-03-06T12:22:02.838Z,36.17
2023-03-06T12:24:38.141Z,35.81
2023-03-06T12:27:31.400Z,35.50
2023-03-06T12:30:10.407Z,34.13
2023-03-06T12:33:13.688Z,33.77
2023-03-06T12:36:12.013Z,33.82
2023-03-06T12:38:55.213Z,33.43
2023-03-06T12:41:39.554Z,33.39
2023-03-06T12:44:22.405Z,33.53
2023-03-06T12:47:06.097Z,33.15
2023-03-06T12:49:47.354Z,33.56
2023-03-06T12:52:32.030Z,33.62
2023-03-06T12:55:08.685Z,33.65
2023-03-06T12:57:44.679Z,33.36
2023-03-06T13:00:36.118Z,33.46
2023-03-06T13:03:17.697Z,33.33
2023-03-06T13:06:21.117Z,33.32
2023-03-06T13:09:08.693Z,32.86
2023-03-06T13:12:07.850Z,33.28
2023-03-06T13:14:48.762Z,32.81
2023-03-06T13:17:32.032Z,32.85
2023-03-06T13:20:35.295Z,32.85
2023-03-06T13:23:33.476Z,32.51
2023-03-06T13:26:27.754Z,32.34
2023-03-06T13:29:03.502Z,32.70
2023-03-06T13:31:39.748Z,32.53
2023-03-06T13:34:36.794Z,32.45
2023-03-06T13:37:24.449Z,32.73
2023-03-06T13:39:59.432Z,32.83
2023-03-06T13:42:36.483Z,32.62
2023-03-06T13:45:20.863Z,32.61
2023-03-06T13:48:33.615Z,32.91
2023-03-06T13:50:48.996Z,32.47
2023-03-06T13:53:42.591Z,32.15
2023-03-06T13:56:39.274Z,32.46
2023-03-06T13:59:43.797Z,32.45
2023-03-06T14:02:58.809Z,33.22
2023-03-06T14:09:00.329Z,32.95
2023-03-06T14:11:33.371Z,33.35
2023-03-06T14:14:03.242Z,33.24
2023-03-06T14:16:50.291Z,33.56
2023-03-06T14:19:23.195Z,33.58
2023-03-06T14:21:57.862Z,33.56
2023-03-06T14:24:34.896Z,34.10
2023-03-06T14:27:16.926Z,34.01
2023-03-06T14:29:49.040Z,34.03
2023-03-06T14:32:25.622Z,33.97
2023-03-06T14:34:57.951Z,34.12
2023-03-06T14:37:29.462Z,34.18
2023-03-06T14:39:59.328Z,33.86
2023-03-06T14:42:30.735Z,33.81
2023-03-06T14:45:17.276Z,33.93
2023-03-06T14:47:55.064Z,33.76
2023-03-06T14:50:24.610Z,34.00
2023-03-06T14:53:05.370Z,34.31
2023-03-06T14:55:39.849Z,34.47
2023-03-06T14:58:17.144Z,34.25
2023-03-06T15:00:50.662Z,33.36
2023-03-06T15:03:27.457Z,33.26
2023-03-06T15:05:59.012Z,34.00
2023-03-06T15:08:32.301Z,33.53
2023-03-06T15:11:03.875Z,33.24
2023-03-06T15:13:34.752Z,33.61
2023-03-06T15:16:07.378Z,34.05
2023-03-06T15:19:06.655Z,34.23
2023-03-06T15:21:39.166Z,34.32
2023-03-06T15:24:36.829Z,34.18
2023-03-06T15:27:18.361Z,34.24
2023-03-06T15:29:47.805Z,34.77
2023-03-06T15:32:42.753Z,34.87
2023-03-06T15:35:35.755Z,34.81
2023-03-06T15:38:30.244Z,34.49
2023-03-06T15:41:05.236Z,35.02
2023-03-06T15:43:40.813Z,34.82
2023-03-06T15:46:11.452Z,34.22
2023-03-06T15:48:55.106Z,34.52
2023-03-06T15:51:28.124Z,35.09
2023-03-06T15:54:09.932Z,35.06
2023-03-06T15:56:44.296Z,35.49
2023-03-06T15:59:36.121Z,35.93
2023-03-06T16:02:20.210Z,36.12
2023-03-06T16:04:54.174Z,35.94
2023-03-06T16:07:26.351Z,35.75
2023-03-06T16:10:01.326Z,35.56
2023-03-06T16:12:41.759Z,35.83
2023-03-06T16:15:38.659Z,35.89
2023-03-06T16:18:11.562Z,36.23
2023-03-06T16:20:42.188Z,36.77
2023-03-06T16:23:13.980Z,37.28
2023-03-06T16:25:48.644Z,37.21
2023-03-06T16:28:19.156Z,37.42
2023-03-06T16:30:50.231Z,37.71
2023-03-06T16:33:19.774Z,37.91
2023-03-06T16:35:48.452Z,37.92
2023-03-06T16:38:18.456Z,38.48
2023-03-06T16:40:47.438Z,38.33
2023-03-06T16:43:17.008Z,38.55
2023-03-06T16:45:45.849Z,39.44
2023-03-06T16:48:20.356Z,39.75
2023-03-06T16:50:50.909Z,40.64
2023-03-06T16:53:20.840Z,40.48
2023-03-06T16:55:51.213Z,40.16
2023-03-06T16:58:22.429Z,40.67
2023-03-06T17:00:53.025Z,41.37
2023-03-06T17:03:29.734Z,41.59
2023-03-06T17:06:03.036Z,42.24
2023-03-06T17:08:31.866Z,41.89
2023-03-06T17:11:03.153Z,42.07
2023-03-06T17:13:33.446Z,42.01
2023-03-06T17:16:03.809Z,42.90
2023-03-06T17:18:38.414Z,43.84
2023-03-06T17:21:08.736Z,42.25
2023-03-06T17:23:39.557Z,42.80
2023-03-06T17:26:14.810Z,43.03
2023-03-06T17:28:47.158Z,43.12
2023-03-06T17:31:19.161Z,44.35
2023-03-06T17:33:48.620Z,47.49
2023-03-06T17:36:19.682Z,45.29
2023-03-06T17:38:50.426Z,44.77
2023-03-06T17:41:24.867Z,45.35
2023-03-06T17:43:58.849Z,44.05
2023-03-06T17:46:28.785Z,44.09
2023-03-06T17:49:02.165Z,45.36
2023-03-06T17:51:33.886Z,45.48
2023-03-06T17:54:03.395Z,45.96
2023-03-06T17:56:39.008Z,45.64
2023-03-06T17:59:11.166Z,47.01
2023-03-06T18:01:41.325Z,47.27
2023-03-06T18:04:11.494Z,46.94
2023-03-06T18:06:40.827Z,46.71
2023-03-06T18:09:14.515Z,48.30
2023-03-06T18:11:43.519Z,47.14
2023-03-06T18:14:14.613Z,48.10
2023-03-06T18:16:43.898Z,48.63
2023-03-06T18:19:13.084Z,47.20
2023-03-06T18:25:25.524Z,47.41
2023-03-06T18:27:54.939Z,49.38
2023-03-06T18:30:25.566Z,48.74
2023-03-06T18:32:59.858Z,47.24
2023-03-06T18:35:29.308Z,47.90
2023-03-06T18:37:58.050Z,48.47
2023-03-06T18:40:28.496Z,48.64
2023-03-06T18:42:58.373Z,48.78
2023-03-06T18:45:32.600Z,49.89
2023-03-06T18:48:02.538Z,49.21
2023-03-06T18:50:31.985Z,48.47
2023-03-06T18:53:01.032Z,47.92
2023-03-06T18:55:34.059Z,49.39
2023-03-06T18:58:04.414Z,48.55
2023-03-06T19:00:36.123Z,48.77
2023-03-06T19:03:12.420Z,49.54
2023-03-06T19:05:44.138Z,50.43
2023-03-06T19:08:18.885Z,49.03
2023-03-06T19:10:53.563Z,49.62
2023-03-06T19:13:24.520Z,49.27
2023-03-06T19:15:57.106Z,48.44
2023-03-06T19:18:27.598Z,49.40
2023-03-06T19:21:08.948Z,49.04
2023-03-06T19:23:42.006Z,48.77
2023-03-06T19:26:13.272Z,49.89
2023-03-06T19:28:43.137Z,50.00
2023-03-06T19:31:18.458Z,49.11
2023-03-06T19:33:49.589Z,50.67
2023-03-06T19:36:19.963Z,49.23
2023-03-06T19:38:53.986Z,51.60
2023-03-06T19:41:23.282Z,51.08
2023-03-06T19:43:55.509Z,51.09
2023-03-06T19:46:25.983Z,51.67
2023-03-06T19:48:57.448Z,53.25
2023-03-06T19:51:28.473Z,53.63
2023-03-06T19:54:03.906Z,53.18
2023-03-06T19:56:33.837Z,52.17
2023-03-06T19:59:06.871Z,52.63
2023-03-06T20:01:39.426Z,52.22
2023-03-06T20:04:08.446Z,51.69
2023-03-06T20:06:39.147Z,51.80
2023-03-06T20:09:09.073Z,53.88
2023-03-06T20:11:38.530Z,53.21
2023-03-06T20:14:09.158Z,53.21
2023-03-06T20:16:39.786Z,53.38
2023-03-06T20:19:11.836Z,53.72
2023-03-06T20:21:40.745Z,52.79
2023-03-06T20:24:18.098Z,52.47
2023-03-06T20:26:47.764Z,52.98
2023-03-06T20:29:18.720Z,52.69
2023-03-06T20:31:48.185Z,52.36
2023-03-06T20:34:17.505Z,53.45
2023-03-06T20:36:46.924Z,53.97
2023-03-06T20:39:22.163Z,53.51
2023-03-06T20:41:51.215Z,52.46
2023-03-06T20:44:20.697Z,53.20
2023-03-06T20:46:55.871Z,52.33
2023-03-06T20:49:27.250Z,52.45
2023-03-06T20:52:02.139Z,52.28
2023-03-06T20:54:35.102Z,52.50
2023-03-06T20:57:06.288Z,53.10
2023-03-06T20:59:37.778Z,53.60
2023-03-06T21:02:09.990Z,53.76
2023-03-06T21:04:45.814Z,55.18
2023-03-06T21:07:20.064Z,53.60
2023-03-06T21:09:54.084Z,56.97
2023-03-06T21:12:28.207Z,57.48
2023-03-06T21:14:59.339Z,55.35
2023-03-06T21:17:30.280Z,55.19
2023-03-06T21:20:02.654Z,54.96
2023-03-06T21:22:36.748Z,54.89
2023-03-06T21:25:06.217Z,54.14
2023-03-06T21:27:34.743Z,54.44
2023-03-06T21:30:04.546Z,55.48
2023-03-06T21:32:33.767Z,54.25
2023-03-06T21:35:02.229Z,54.28
2023-03-06T21:37:30.929Z,54.97
2023-03-06T21:40:00.371Z,55.69
2023-03-06T21:42:29.828Z,54.43
2023-03-06T21:45:00.462Z,54.62
2023-03-06T21:47:37.967Z,54.50
2023-03-06T21:50:09.646Z,55.43
2023-03-06T21:52:39.416Z,55.45
2023-03-06T21:55:09.400Z,54.64
2023-03-06T21:57:37.734Z,55.31
2023-03-06T22:00:11.511Z,56.26
2023-03-06T22:02:45.118Z,55.23
2023-03-06T22:05:16.877Z,56.28
2023-03-06T22:07:45.704Z,56.43
2023-03-06T22:10:16.707Z,56.32
2023-03-06T22:16:24.487Z,57.02
2023-03-06T22:18:54.967Z,56.81
2023-03-06T22:21:24.705Z,57.09
2023-03-06T22:23:59.673Z,57.15
2023-03-06T22:26:30.306Z,56.33
2023-03-06T22:29:01.030Z,55.93
2023-03-06T22:31:36.316Z,57.40
2023-03-06T22:34:10.262Z,56.74
2023-03-06T22:36:39.716Z,55.56
2023-03-06T22:39:12.826Z,55.66
2023-03-06T22:41:41.581Z,58.04
2023-03-06T22:44:16.106Z,57.72
2023-03-06T22:46:45.129Z,56.44
2023-03-06T22:49:14.989Z,56.25
2023-03-06T22:51:44.008Z,55.94
2023-03-06T22:54:12.482Z,55.97
2023-03-06T22:56:40.702Z,56.15
2023-03-06T22:59:09.399Z,56.11
2023-03-06T23:01:39.177Z,56.34
2023-03-06T23:04:11.479Z,55.64
2023-03-06T23:06:42.190Z,56.08
2023-03-06T23:09:20.990Z,55.99
2023-03-06T23:12:09.383Z,55.74
2023-03-06T23:14:56.276Z,55.20
2023-03-06T23:17:43.302Z,55.42
2023-03-06T23:20:30.591Z,54.81
2023-03-06T23:23:17.804Z,54.52
2023-03-06T23:25:46.082Z,55.41
2023-03-06T23:28:15.486Z,54.51
2023-03-06T23:30:44.518Z,54.34
2023-03-06T23:33:12.955Z,53.98
2023-03-06T23:35:41.687Z,53.99
2023-03-06T23:38:10.024Z,54.16
2023-03-06T23:40:40.042Z,54.38
2023-03-06T23:43:08.643Z,54.49
2023-03-06T23:45:37.104Z,54.55
2023-03-06T23:48:08.134Z,54.22
2023-03-06T23:50:39.954Z,54.17
2023-03-06T23:53:08.550Z,54.49
2023-03-06T23:55:41.981Z,54.71
2023-03-06T23:58:11.484Z,55.14
